Time;durP1;ratioP1;P1;durP2;ratioP2;P2;SDS_P1;SDS_P2;PMS_P1;PMS_P2;Temp;Humidity;BMP_temperature;BMP_pressure;BME280_temperature;BME280_humidity;BME280_pressure;Samples;Min_cycle;Max_cycle;Signal;HPM_P1;HPM_P2
2021/07/24 00:00:05;;;;;;;13.60;11.50;;;;;;;15.74;78.82;100516.13;92707;1210;67223;-60
2021/07/24 00:02:33;;;;;;;13.20;11.50;;;;;;;15.72;78.72;100519.05;92734;1210;70589;-61
2021/07/24 00:04:48;;;;;;;13.40;11.00;;;;;;;15.72;78.82;100519.05;92721;1210;85231;-57
2021/07/24 00:07:02;;;;;;;14.90;11.00;;;;;;;15.68;78.81;100520.56;92717;1216;74555;-56
2021/07/24 00:09:10;;;;;;;11.70;10.40;;;;;;;15.66;78.74;100517.20;92709;1210;81561;-56
2021/07/24 00:27:58;;;;;;;15.20;12.50;;;;;;;15.48;79.15;100519.84;92600;1213;82108;-56
2021/07/24 00:30:10;;;;;;;19.90;15.50;;;;;;;15.44;79.22;100528.64;92714;1213;65069;-56
2021/07/24 00:32:18;;;;;;;20.10;14.70;;;;;;;15.35;79.23;100525.33;92646;1220;67924;-57
2021/07/24 00:34:26;;;;;;;18.20;13.90;;;;;;;15.32;79.33;100521.16;92651;1213;86717;-57
2021/07/24 00:36:34;;;;;;;17.30;14.30;;;;;;;15.31;79.36;100524.08;92687;1213;75109;-56
2021/07/24 00:38:48;;;;;;;14.80;13.10;;;;;;;15.30;79.40;100527.84;92651;1213;80887;-57
2021/07/24 00:40:58;;;;;;;;;;;;;;;15.28;79.45;100519.91;92631;1214;66804;-60
2021/07/24 00:43:08;;;;;;;16.50;13.50;;;;;;;15.26;79.28;100521.18;92666;1213;68228;-61
2021/07/24 00:45:19;;;;;;;17.90;13.20;;;;;;;15.26;79.18;100515.73;92648;1213;85878;-61
2021/07/24 00:47:34;;;;;;;17.40;13.50;;;;;;;15.23;79.29;100524.33;92632;1218;75238;-60
2021/07/24 00:49:42;;;;;;;16.40;13.00;;;;;;;15.26;79.56;100526.63;92635;1213;80904;-60
2021/07/24 00:51:53;;;;;;;16.90;13.10;;;;;;;15.24;79.32;100528.73;92666;1213;65399;-60
2021/07/24 00:54:02;;;;;;;16.00;13.80;;;;;;;15.21;79.54;100521.84;92676;1213;68295;-61
2021/07/24 00:56:10;;;;;;;17.40;12.80;;;;;;;15.19;79.51;100517.67;92692;1213;87056;-56
2021/07/24 01:05:08;;;;;;;17.00;14.50;;;;;;;15.23;79.61;100521.61;92455;1220;66253;-56
2021/07/24 01:07:20;;;;;;;19.90;15.70;;;;;;;15.21;79.59;100523.72;92559;1213;68857;-56
2021/07/24 01:09:33;;;;;;;20.00;15.90;;;;;;;15.19;79.63;100515.75;92787;1216;84790;-60
2021/07/24 01:11:45;;;;;;;22.80;15.70;;;;;;;15.21;79.63;100524.56;92727;1211;74746;-61
2021/07/24 01:14:25;;;;;;;21.60;15.50;;;;;;;15.24;79.75;100512.41;92726;1210;79918;-61
2021/07/24 01:16:33;;;;;;;20.00;16.60;;;;;;;15.27;79.79;100520.95;92718;1210;67069;-60
2021/07/24 01:18:44;;;;;;;19.60;16.70;;;;;;;15.28;79.56;100516.34;92760;1210;67773;-61
2021/07/24 01:24:49;;;;;;;19.10;14.20;;;;;;;15.21;79.65;100515.56;92670;1213;75580;-57
2021/07/24 01:26:57;;;;;;;16.00;13.10;;;;;;;15.22;79.63;100509.88;92668;1213;81459;-56
2021/07/24 01:29:05;;;;;;;17.80;13.70;;;;;;;15.26;79.59;100513.02;92695;1213;65460;-56
2021/07/24 01:35:19;;;;;;;18.20;13.40;;;;;;;15.21;79.62;100510.11;92507;1218;85788;-60
2021/07/24 01:37:27;;;;;;;15.40;13.00;;;;;;;15.14;79.81;100510.13;92479;1213;75821;-60
2021/07/24 01:39:35;;;;;;;16.10;12.70;;;;;;;15.06;79.87;100507.66;92681;1213;81694;-60
2021/07/24 01:41:48;;;;;;;15.80;12.50;;;;;;;15.02;79.92;100511.03;92817;1209;65346;-60
2021/07/24 01:43:55;;;;;;;16.00;14.30;;;;;;;14.99;79.90;100511.46;92701;1211;69628;-60
2021/07/24 01:46:03;;;;;;;17.40;13.00;;;;;;;14.99;80.06;100508.74;92659;1213;85882;-57
2021/07/24 01:48:15;;;;;;;18.40;12.80;;;;;;;15.00;80.17;100510.39;92700;1210;74724;-56
2021/07/24 01:54:15;;;;;;;14.50;11.30;;;;;;;14.97;80.25;100502.69;92739;1210;66747;-60
2021/07/24 01:56:32;;;;;;;13.90;11.60;;;;;;;14.94;80.22;100500.39;92825;1217;68180;-56
2021/07/24 01:58:40;;;;;;;14.80;12.20;;;;;;;14.93;80.16;100501.44;92813;1211;84566;-56
2021/07/24 02:05:00;;;;;;;15.20;10.90;;;;;;;14.98;80.26;100507.06;92340;1218;82943;-60
2021/07/24 02:07:14;;;;;;;13.50;10.60;;;;;;;14.99;80.56;100503.30;92420;1222;65500;-60
2021/07/24 02:12:06;;;;;;;14.80;11.50;;;;;;;14.99;80.76;100493.26;92660;1213;86864;-60
2021/07/24 02:14:14;;;;;;;16.30;11.40;;;;;;;15.05;80.63;100503.25;92696;1213;75540;-60
2021/07/24 02:16:23;;;;;;;15.30;11.30;;;;;;;15.06;80.64;100507.66;92649;1213;80724;-60
2021/07/24 02:18:31;;;;;;;13.90;11.00;;;;;;;15.07;80.82;100503.05;92670;1213;66131;-60
2021/07/24 02:20:42;;;;;;;13.40;11.50;;;;;;;15.12;80.76;100504.08;92638;1213;68071;-60
2021/07/24 02:22:49;;;;;;;13.90;10.70;;;;;;;15.16;80.94;100494.41;92630;1213;86240;-60
2021/07/24 02:25:00;;;;;;;11.60;10.00;;;;;;;15.18;80.87;100503.22;92618;1212;74439;-60
2021/07/24 02:27:11;;;;;;;14.40;10.30;;;;;;;15.24;80.85;100501.52;92637;1213;81661;-60
2021/07/24 02:29:19;;;;;;;13.90;10.60;;;;;;;15.30;81.04;100496.02;92683;1213;67034;-60
2021/07/24 02:31:26;;;;;;;12.50;10.20;;;;;;;15.35;81.01;100498.11;92678;1213;67422;-60
2021/07/24 02:33:34;;;;;;;12.60;9.90;;;;;;;15.37;80.97;100498.72;92686;1213;85142;-60
2021/07/24 02:35:42;;;;;;;13.40;10.40;;;;;;;15.38;80.92;100493.04;92716;1212;74487;-56
2021/07/24 02:37:53;;;;;;;11.30;9.80;;;;;;;15.36;81.02;100494.31;92622;1213;82011;-57
2021/07/24 02:40:00;;;;;;;12.70;9.80;;;;;;;15.36;81.03;100495.16;92662;1213;65353;-60
2021/07/24 02:42:08;;;;;;;11.20;10.00;;;;;;;15.36;81.00;100489.71;92669;1213;68813;-61
2021/07/24 02:44:21;;;;;;;11.10;9.90;;;;;;;15.38;81.06;100488.67;92781;1210;86984;-60
2021/07/24 02:46:33;;;;;;;12.80;9.50;;;;;;;15.38;81.37;100492.23;92836;1217;74960;-56
2021/07/24 02:48:40;;;;;;;12.30;9.90;;;;;;;15.42;81.24;100492.61;92842;1211;80434;-56
2021/07/24 02:50:48;;;;;;;13.20;10.30;;;;;;;15.46;81.13;100489.28;92818;1210;66875;-56
2021/07/24 02:52:55;;;;;;;14.40;11.00;;;;;;;15.48;81.22;100489.89;92844;1210;69127;-56
2021/07/24 02:55:08;;;;;;;18.40;13.80;;;;;;;15.49;81.18;100494.30;92847;1211;85884;-60
2021/07/24 02:57:15;;;;;;;16.80;12.30;;;;;;;15.47;80.93;100490.94;92729;1210;75250;-61
2021/07/24 02:59:26;;;;;;;14.90;11.90;;;;;;;15.36;80.98;100491.59;92816;1210;81780;-60
2021/07/24 03:01:33;;;;;;;14.00;10.90;;;;;;;15.30;80.90;100489.73;92882;1208;68922;-60
2021/07/24 03:03:44;;;;;;;16.10;11.40;;;;;;;15.27;81.03;100487.48;92876;1210;67627;-60
2021/07/24 03:05:51;;;;;;;14.60;10.60;;;;;;;15.24;81.18;100488.72;92875;1210;87078;-56
2021/07/24 03:07:59;;;;;;;13.80;11.00;;;;;;;15.24;81.06;100493.35;92846;1210;75237;-56
2021/07/24 03:10:11;;;;;;;14.70;11.40;;;;;;;15.23;81.11;100484.34;92867;1210;81746;-57
2021/07/24 03:12:19;;;;;;;13.50;10.60;;;;;;;15.22;81.36;100479.11;92851;1211;67245;-57
2021/07/24 03:14:27;;;;;;;14.20;11.10;;;;;;;15.23;81.11;100492.52;92865;1210;68226;-60
2021/07/24 03:16:35;;;;;;;13.70;10.80;;;;;;;15.26;81.13;100480.36;92865;1203;86014;-60
2021/07/24 03:18:43;;;;;;;13.30;11.30;;;;;;;15.29;81.37;100479.92;92856;1217;74996;-60
2021/07/24 03:20:50;;;;;;;13.80;11.10;;;;;;;15.33;81.13;100483.86;92821;1215;82941;-56
2021/07/24 03:22:59;;;;;;;14.70;10.80;;;;;;;15.38;81.15;100481.34;92856;1210;67361;-56
2021/07/24 03:25:10;;;;;;;14.00;11.20;;;;;;;15.40;81.28;100484.67;92844;1217;67664;-60
2021/07/24 03:27:20;;;;;;;12.60;11.00;;;;;;;15.46;81.07;100494.73;92922;1211;87498;-60
2021/07/24 03:29:28;;;;;;;17.00;13.00;;;;;;;15.50;81.00;100489.66;92905;1208;74678;-59
2021/07/24 03:31:36;;;;;;;13.50;11.10;;;;;;;15.52;81.14;100485.66;92927;1210;81274;-60
2021/07/24 03:33:44;;;;;;;13.90;11.70;;;;;;;15.44;81.16;100487.80;92911;1216;67802;-61
2021/07/24 03:35:51;;;;;;;13.30;10.60;;;;;;;15.43;81.19;100484.23;92962;1210;70253;-57
2021/07/24 03:38:03;;;;;;;13.30;11.10;;;;;;;15.44;81.33;100487.80;92918;1210;85716;-56
2021/07/24 03:40:13;;;;;;;13.60;10.70;;;;;;;15.47;81.30;100482.77;92959;1210;75548;-56
2021/07/24 03:42:21;;;;;;;14.50;11.60;;;;;;;15.56;81.14;100486.91;92965;1213;81695;-56
2021/07/24 03:44:31;;;;;;;13.90;11.80;;;;;;;15.61;81.36;100484.35;92926;1210;68483;-58
2021/07/24 03:46:39;;;;;;;15.10;11.60;;;;;;;15.62;81.48;100486.03;92928;1210;68475;-57
2021/07/24 03:48:47;;;;;;;14.80;11.60;;;;;;;15.70;81.46;100493.94;92935;1210;86635;-56
2021/07/24 03:50:55;;;;;;;13.40;11.00;;;;;;;15.79;81.50;100489.87;92948;1210;75477;-57
2021/07/24 03:53:03;;;;;;;12.60;11.30;;;;;;;15.88;81.25;100491.27;92938;1210;80935;-57
2021/07/24 03:55:14;;;;;;;14.70;11.80;;;;;;;15.87;81.35;100492.35;92932;1209;66108;-60
2021/07/24 03:57:25;;;;;;;13.30;11.20;;;;;;;15.86;81.18;100496.12;92946;1216;68197;-60
2021/07/24 03:59:33;;;;;;;13.90;10.20;;;;;;;15.86;81.16;100490.67;92947;1210;85258;-60
2021/07/24 04:01:42;;;;;;;12.30;10.10;;;;;;;16.00;81.15;100496.01;92950;1210;74723;-60
2021/07/24 04:03:52;;;;;;;13.10;10.40;;;;;;;16.16;81.22;100485.38;92926;1210;81032;-60
2021/07/24 04:06:00;;;;;;;17.70;13.00;;;;;;;16.56;81.46;100495.95;92970;1209;67025;-61
2021/07/24 04:08:09;;;;;;;16.40;12.80;;;;;;;17.13;81.24;100491.91;92941;1210;68458;-60
2021/07/24 04:10:17;;;;;;;15.40;13.20;;;;;;;17.34;80.40;100494.14;92956;1216;85784;-60
2021/07/24 04:12:25;;;;;;;19.20;13.00;;;;;;;17.24;79.98;100489.24;92927;1210;75315;-60
2021/07/24 04:14:33;;;;;;;17.20;13.50;;;;;;;17.13;79.81;100491.91;92820;1210;79941;-57
2021/07/24 04:16:45;;;;;;;17.80;14.00;;;;;;;17.04;79.91;100492.23;92870;1210;65456;-56
2021/07/24 04:18:52;;;;;;;16.50;14.20;;;;;;;17.01;79.82;100492.68;92870;1210;68005;-55
2021/07/24 04:21:00;;;;;;;19.10;12.90;;;;;;;16.96;80.00;100495.27;92869;1210;87374;-60
2021/07/24 04:23:08;;;;;;;14.30;12.80;;;;;;;17.36;80.32;100492.03;92875;1210;74869;-60
2021/07/24 04:25:17;;;;;;;16.60;13.00;;;;;;;17.91;79.95;100496.25;92887;1210;80932;-56
2021/07/24 04:27:24;;;;;;;15.40;12.80;;;;;;;17.93;79.27;100494.14;92913;1210;65284;-56
2021/07/24 04:29:32;;;;;;;16.40;12.40;;;;;;;17.82;79.23;100496.84;92923;1210;69000;-60
2021/07/24 04:31:39;;;;;;;16.30;12.90;;;;;;;17.80;79.04;100491.59;92956;1211;87179;-60
2021/07/24 04:33:47;;;;;;;18.60;13.40;;;;;;;17.85;78.97;100491.75;92880;1210;74102;-60
2021/07/24 04:35:54;;;;;;;14.60;11.90;;;;;;;17.76;79.00;100493.14;92979;1209;80966;-56
2021/07/24 04:38:03;;;;;;;16.00;12.00;;;;;;;17.83;79.01;100491.13;92923;1212;67718;-56
2021/07/24 04:40:14;;;;;;;13.80;12.30;;;;;;;17.98;78.96;100490.69;92940;1210;69351;-56
2021/07/24 04:42:21;;;;;;;17.00;13.40;;;;;;;18.23;78.99;100500.36;92855;1210;86849;-56
2021/07/24 04:44:29;;;;;;;16.40;13.70;;;;;;;18.78;79.13;100489.06;92880;1210;73785;-59
2021/07/24 04:46:38;;;;;;;20.70;15.40;;;;;;;19.84;78.77;100496.66;92838;1210;81672;-60
2021/07/24 04:48:49;;;;;;;18.60;15.30;;;;;;;20.63;77.52;100489.19;92849;1210;66869;-57
2021/07/24 04:51:00;;;;;;;17.60;15.70;;;;;;;21.06;76.55;100494.72;92956;1208;68715;-56
2021/07/24 04:53:12;;;;;;;18.70;16.30;;;;;;;22.05;76.00;100498.03;92840;1210;86173;-56
2021/07/24 04:55:25;;;;;;;17.10;15.30;;;;;;;22.75;74.16;100493.06;92989;1209;74213;-60
2021/07/24 04:57:34;;;;;;;17.50;15.40;;;;;;;23.31;73.25;100485.88;92906;1210;81334;-60
2021/07/24 04:59:47;;;;;;;18.30;16.40;;;;;;;23.84;71.89;100483.81;92860;1210;66305;-57
2021/07/24 05:01:58;;;;;;;17.20;15.30;;;;;;;24.49;70.36;100482.99;92951;1210;70169;-57
2021/07/24 05:04:07;;;;;;;18.80;15.00;;;;;;;24.97;69.40;100485.09;92946;1211;87054;-57
2021/07/24 05:06:14;;;;;;;18.70;14.20;;;;;;;25.33;67.65;100479.41;92910;1210;74437;-57
2021/07/24 05:08:23;;;;;;;17.00;14.60;;;;;;;25.64;66.94;100481.75;92778;1210;80698;-57
2021/07/24 05:10:34;;;;;;;22.20;15.20;;;;;;;25.95;65.76;100482.38;92965;1211;66532;-57
2021/07/24 05:12:42;;;;;;;18.60;14.60;;;;;;;26.21;65.32;100483.83;92930;1216;68009;-57
2021/07/24 05:14:52;;;;;;;16.30;14.40;;;;;;;26.52;64.67;100491.86;92964;1210;86693;-57
2021/07/24 05:17:10;;;;;;;21.50;15.70;;;;;;;26.84;63.17;100486.55;92951;1210;76005;-57
2021/07/24 05:19:17;;;;;;;21.70;15.50;;;;;;;27.24;61.63;100490.80;92955;1210;81520;-57
2021/07/24 05:21:25;;;;;;;22.70;16.10;;;;;;;27.40;61.17;100492.23;92947;1210;65483;-59
2021/07/24 05:23:33;;;;;;;18.60;14.50;;;;;;;27.51;60.36;100493.78;92949;1210;68305;-58
2021/07/24 05:25:40;;;;;;;22.60;16.80;;;;;;;27.43;59.49;100495.28;92935;1210;86530;-57
2021/07/24 05:27:48;;;;;;;18.50;14.40;;;;;;;27.30;59.04;100495.99;92909;1210;74436;-56
2021/07/24 05:29:56;;;;;;;17.70;14.10;;;;;;;27.29;58.31;100502.66;92933;1210;81112;-60
2021/07/24 05:32:05;;;;;;;22.60;14.10;;;;;;;27.39;57.63;100505.28;92930;1210;67075;-61
2021/07/24 05:34:13;;;;;;;17.30;15.20;;;;;;;27.24;57.75;100502.72;92900;1210;69106;-60
2021/07/24 05:36:23;;;;;;;14.90;13.40;;;;;;;27.17;57.18;100495.86;92963;1205;87138;-60
2021/07/24 05:38:30;;;;;;;15.80;13.30;;;;;;;27.08;57.50;100495.72;92915;1210;74437;-60
2021/07/24 05:40:38;;;;;;;15.00;13.10;;;;;;;27.17;57.23;100498.63;92912;1210;81692;-60
2021/07/24 05:42:48;;;;;;;17.30;13.90;;;;;;;27.23;57.45;100498.28;92940;1211;66144;-60
2021/07/24 05:44:56;;;;;;;14.90;13.50;;;;;;;27.19;57.16;100491.70;92908;1210;68964;-60
2021/07/24 05:47:04;;;;;;;17.10;14.10;;;;;;;27.08;56.51;100500.43;92952;1200;86774;-60
2021/07/24 05:49:12;;;;;;;15.70;13.90;;;;;;;26.83;57.04;100499.61;92973;1210;75536;-60
2021/07/24 05:51:20;;;;;;;14.90;13.40;;;;;;;26.84;56.74;100494.87;92893;1205;82967;-60
2021/07/24 05:53:27;;;;;;;14.60;13.00;;;;;;;26.87;57.52;100502.60;92927;1210;65866;-60
2021/07/24 05:55:37;;;;;;;16.80;13.50;;;;;;;26.80;57.86;100493.82;92936;1211;68229;-57
2021/07/24 05:57:45;;;;;;;21.30;14.10;;;;;;;26.71;57.81;100493.60;92912;1210;87201;-57
2021/07/24 05:59:55;;;;;;;19.90;15.00;;;;;;;26.88;57.61;100484.85;92932;1204;75095;-59
2021/07/24 06:02:05;;;;;;;20.10;14.50;;;;;;;27.01;57.00;100484.14;92915;1210;80422;-60
2021/07/24 06:04:13;;;;;;;19.90;14.30;;;;;;;26.95;57.07;100482.54;92911;1210;66352;-60
2021/07/24 06:06:21;;;;;;;18.40;14.80;;;;;;;26.78;57.18;100488.55;92924;1210;70182;-60
2021/07/24 06:08:29;;;;;;;17.30;12.80;;;;;;;26.81;57.42;100481.63;92884;1210;85254;-60
2021/07/24 06:10:36;;;;;;;20.00;14.90;;;;;;;26.84;56.70;100481.00;92919;1209;74296;-60
2021/07/24 06:12:46;;;;;;;17.40;15.10;;;;;;;26.71;56.78;100484.45;92903;1209;81028;-60
2021/07/24 06:14:53;;;;;;;19.10;15.40;;;;;;;26.59;56.48;100487.62;92954;1216;65517;-56
2021/07/24 06:17:01;;;;;;;25.00;16.30;;;;;;;26.61;56.42;100485.41;92941;1210;69593;-57
2021/07/24 06:19:09;;;;;;;20.30;15.50;;;;;;;26.73;56.45;100473.89;92949;1210;86202;-57
2021/07/24 06:21:20;;;;;;;22.20;16.40;;;;;;;26.89;55.61;100478.20;92934;1210;75451;-60
2021/07/24 06:23:30;;;;;;;24.70;16.90;;;;;;;26.92;56.48;100466.48;92957;1203;81677;-60
2021/07/24 06:25:38;;;;;;;22.00;16.20;;;;;;;27.13;55.77;100472.63;92924;1210;66533;-61
2021/07/24 06:27:48;;;;;;;22.70;16.40;;;;;;;27.11;55.59;100478.48;92955;1210;69095;-60
2021/07/24 06:29:56;;;;;;;21.90;14.40;;;;;;;27.36;55.36;100474.55;92907;1210;87889;-60
2021/07/24 06:32:04;;;;;;;24.00;16.70;;;;;;;27.18;55.40;100476.16;92921;1211;75697;-62
2021/07/24 06:34:12;;;;;;;22.00;14.30;;;;;;;27.35;54.73;100472.89;92929;1210;80591;-59
2021/07/24 06:36:20;;;;;;;19.50;14.40;;;;;;;27.46;54.72;100466.94;92873;1216;65800;-56
2021/07/24 06:38:27;;;;;;;16.00;13.70;;;;;;;27.70;54.89;100468.80;92924;1209;68635;-57
2021/07/24 06:40:35;;;;;;;18.10;15.10;;;;;;;27.71;53.99;100465.73;92918;1211;86015;-56
2021/07/24 06:42:43;;;;;;;17.80;13.60;;;;;;;27.75;53.33;100466.77;92920;1210;74937;-56
2021/07/24 06:44:52;;;;;;;15.50;12.20;;;;;;;27.82;52.96;100470.01;92912;1211;82005;-56
2021/07/24 06:47:00;;;;;;;16.30;12.60;;;;;;;27.83;52.20;100462.48;92931;1210;65487;-56
2021/07/24 06:49:10;;;;;;;15.30;11.70;;;;;;;27.76;51.77;100473.16;92960;1210;67813;-57
2021/07/24 06:51:18;;;;;;;14.20;11.30;;;;;;;27.70;52.12;100466.85;92923;1209;86680;-61
2021/07/24 06:53:25;;;;;;;16.20;11.60;;;;;;;27.61;51.85;100465.07;92943;1210;75634;-61
2021/07/24 06:55:33;;;;;;;15.50;11.60;;;;;;;27.53;52.76;100467.38;92879;1210;80841;-61
2021/07/24 06:57:44;;;;;;;15.30;11.40;;;;;;;27.78;51.66;100465.34;92918;1210;66706;-61
2021/07/24 06:59:51;;;;;;;16.40;12.30;;;;;;;27.72;51.85;100472.09;92934;1210;68346;-67
2021/07/24 07:01:59;;;;;;;16.60;11.70;;;;;;;27.77;51.63;100466.48;92948;1203;87695;-67
2021/07/24 07:04:09;;;;;;;16.00;11.60;;;;;;;27.79;51.31;100467.83;92813;1210;75005;-68
2021/07/24 07:06:17;;;;;;;14.90;10.90;;;;;;;27.81;51.66;100473.90;92951;1211;80723;-67
2021/07/24 07:08:25;;;;;;;15.20;10.60;;;;;;;28.25;51.56;100465.14;92936;1210;67269;-68
2021/07/24 07:10:36;;;;;;;14.90;11.20;;;;;;;28.66;51.79;100479.15;92930;1205;70078;-66
2021/07/24 07:12:43;;;;;;;13.60;10.70;;;;;;;28.64;51.27;100476.69;92900;1210;86459;-65
2021/07/24 07:14:51;;;;;;;15.00;10.40;;;;;;;28.55;50.13;100475.71;92915;1216;75362;-66
2021/07/24 07:17:02;;;;;;;15.80;10.50;;;;;;;28.70;50.11;100482.15;92940;1209;81744;-66
2021/07/24 07:19:09;;;;;;;12.30;11.10;;;;;;;28.87;49.70;100477.61;92926;1210;65880;-66
2021/07/24 07:21:17;;;;;;;11.10;9.90;;;;;;;29.37;49.88;100470.19;92963;1210;68343;-66
2021/07/24 07:23:25;;;;;;;10.70;9.60;;;;;;;29.78;49.33;100472.86;92917;1210;85866;-65
2021/07/24 07:25:32;;;;;;;11.90;10.60;;;;;;;30.28;48.56;100473.60;92917;1211;74984;-68
2021/07/24 07:27:44;;;;;;;12.80;10.00;;;;;;;30.89;48.04;100484.80;92923;1205;81665;-72
2021/07/24 07:29:52;;;;;;;13.20;10.00;;;;;;;30.99;45.60;100474.53;92935;1205;66932;-68
2021/07/24 07:32:00;;;;;;;13.30;10.50;;;;;;;31.14;45.25;100468.48;92910;1211;68328;-69
2021/07/24 07:34:07;;;;;;;10.10;8.90;;;;;;;31.42;45.47;100481.04;92930;1216;85740;-70
2021/07/24 07:36:15;;;;;;;10.80;9.70;;;;;;;31.84;45.97;100491.45;92928;1216;73561;-66
2021/07/24 07:38:26;;;;;;;15.00;9.20;;;;;;;31.76;43.92;100489.47;92923;1211;80239;-65
2021/07/24 07:40:39;;;;;;;13.60;10.30;;;;;;;31.80;43.45;100495.23;92948;1210;67146;-69
2021/07/24 07:42:46;;;;;;;10.90;9.80;;;;;;;31.87;43.00;100487.17;92967;1210;69025;-61
2021/07/24 07:44:54;;;;;;;12.70;10.60;;;;;;;32.08;43.19;100485.41;92955;1205;86339;-59
2021/07/24 07:47:01;;;;;;;12.40;10.30;;;;;;;32.34;42.72;100488.97;92932;1205;75401;-59
2021/07/24 07:49:12;;;;;;;13.40;10.30;;;;;;;32.72;41.29;100489.05;92921;1210;80352;-59
2021/07/24 07:51:19;;;;;;;11.50;10.20;;;;;;;32.89;42.29;100485.37;92912;1210;65809;-58
2021/07/24 07:53:30;;;;;;;11.80;9.40;;;;;;;33.22;41.58;100489.19;92928;1212;69078;-59
2021/07/24 07:55:40;;;;;;;13.00;10.80;;;;;;;33.61;40.69;100491.61;92973;1203;86497;-60
2021/07/24 07:57:48;;;;;;;12.10;10.70;;;;;;;33.61;40.75;100496.39;92952;1205;74972;-62
2021/07/24 08:00:00;;;;;;;14.10;10.70;;;;;;;33.76;39.86;100498.60;92935;1216;81581;-62
2021/07/24 08:02:08;;;;;;;12.50;11.00;;;;;;;34.29;38.97;100489.39;92942;1210;65435;-63
2021/07/24 08:04:15;;;;;;;15.30;10.80;;;;;;;33.95;39.16;100501.74;92930;1212;70488;-62
2021/07/24 08:06:23;;;;;;;11.90;10.70;;;;;;;32.76;38.91;100497.61;92927;1211;84910;-60
2021/07/24 08:08:31;;;;;;;13.80;10.40;;;;;;;31.67;39.74;100501.80;92940;1208;74171;-61
2021/07/24 08:10:38;;;;;;;12.50;10.40;;;;;;;31.64;40.61;100510.84;92909;1210;80897;-61
2021/07/24 08:12:46;;;;;;;13.10;10.80;;;;;;;32.54;40.87;100504.27;92905;1216;65617;-61
2021/07/24 08:14:53;;;;;;;12.50;10.90;;;;;;;33.10;39.58;100501.11;92937;1209;68125;-70
2021/07/24 08:17:01;;;;;;;15.40;11.10;;;;;;;33.44;38.83;100497.30;92917;1210;85472;-62
2021/07/24 08:19:11;;;;;;;11.60;10.00;;;;;;;33.94;38.45;100502.89;92932;1210;75007;-61
2021/07/24 08:21:19;;;;;;;11.40;10.20;;;;;;;34.31;36.65;100501.11;92910;1210;80501;-67
2021/07/24 08:23:26;;;;;;;14.70;11.20;;;;;;;34.13;37.80;100503.25;92901;1210;66744;-75
2021/07/24 08:25:34;;;;;;;13.30;10.00;;;;;;;34.74;37.83;100497.85;92964;1210;68864;-71
2021/07/24 08:27:42;;;;;;;11.40;10.20;;;;;;;34.92;37.18;100497.28;92937;1211;85167;-66
2021/07/24 08:29:49;;;;;;;12.60;10.30;;;;;;;33.54;36.90;100493.29;92948;1210;75340;-60
2021/07/24 08:31:58;;;;;;;11.60;9.70;;;;;;;32.05;37.75;100495.27;92941;1210;81207;-64
2021/07/24 08:34:09;;;;;;;13.50;10.60;;;;;;;31.01;39.22;100505.72;92921;1216;66505;-62
2021/07/24 08:36:16;;;;;;;11.30;10.10;;;;;;;30.14;40.17;100500.72;92966;1210;69443;-59
2021/07/24 08:38:24;;;;;;;13.20;10.70;;;;;;;30.46;41.62;100497.70;92928;1210;87601;-62
2021/07/24 08:40:32;;;;;;;11.70;10.10;;;;;;;30.48;40.77;100495.41;92961;1210;73806;-59
2021/07/24 08:42:41;;;;;;;12.40;10.90;;;;;;;29.91;41.08;100487.93;92939;1211;82012;-67
2021/07/24 08:44:49;;;;;;;15.30;11.40;;;;;;;29.27;41.81;100501.04;92885;1210;66456;-58
2021/07/24 08:46:57;;;;;;;16.20;11.10;;;;;;;28.84;42.83;100500.51;92937;1210;68223;-57
2021/07/24 08:49:05;;;;;;;11.40;10.10;;;;;;;28.55;43.11;100497.12;92955;1206;87051;-57
2021/07/24 08:51:17;;;;;;;11.60;10.20;;;;;;;28.03;43.72;100496.35;92934;1210;73784;-65
2021/07/24 08:53:28;;;;;;;12.60;10.00;;;;;;;27.70;45.33;100496.56;92936;1210;80520;-59
2021/07/24 08:55:40;;;;;;;12.40;10.70;;;;;;;27.40;45.89;100504.20;92944;1211;66661;-59
2021/07/24 08:57:50;;;;;;;15.50;11.70;;;;;;;27.30;46.58;100503.48;92949;1210;68562;-59
2021/07/24 09:00:05;;;;;;;13.80;10.40;;;;;;;26.98;46.84;100495.81;92927;1210;86389;-60
2021/07/24 09:02:13;;;;;;;13.20;11.00;;;;;;;26.69;47.61;100506.10;92966;1211;74412;-60
2021/07/24 09:04:22;;;;;;;12.30;10.80;;;;;;;26.54;47.41;100501.53;92931;1210;80698;-63
2021/07/24 09:06:34;;;;;;;17.30;11.10;;;;;;;26.51;47.92;100507.66;92745;1212;67154;-67
2021/07/24 09:08:46;;;;;;;16.90;10.60;;;;;;;26.37;48.11;100506.67;92954;1205;68852;-66
2021/07/24 09:10:54;;;;;;;12.90;10.70;;;;;;;26.02;48.19;100499.47;92936;1210;86641;-66
2021/07/24 09:13:02;;;;;;;13.80;11.80;;;;;;;25.94;48.33;100507.56;92953;1204;75771;-66
2021/07/24 09:15:13;;;;;;;15.50;11.60;;;;;;;25.91;48.09;100497.89;92913;1216;80451;-57
2021/07/24 09:17:24;;;;;;;12.10;10.80;;;;;;;25.94;48.56;100502.86;92966;1209;66538;-58
2021/07/24 09:19:33;;;;;;;13.40;10.40;;;;;;;25.90;49.55;100498.19;92940;1211;68657;-58
2021/07/24 09:21:44;;;;;;;16.10;10.50;;;;;;;25.76;50.36;100498.84;92899;1216;86992;-58
2021/07/24 09:23:51;;;;;;;13.40;10.00;;;;;;;25.69;51.58;100498.32;92888;1211;74451;-58
2021/07/24 09:26:00;;;;;;;11.90;10.60;;;;;;;25.47;49.64;100491.53;92906;1210;81671;-59
2021/07/24 09:28:14;;;;;;;15.80;11.10;;;;;;;25.41;50.12;100492.66;92950;1210;66952;-58
2021/07/24 09:30:33;;;;;;;13.60;11.20;;;;;;;25.37;50.71;100483.27;92930;1205;69210;-58
2021/07/24 09:32:41;;;;;;;15.10;10.60;;;;;;;25.31;51.12;100490.77;92956;1216;85020;-57
2021/07/24 09:34:49;;;;;;;16.10;11.20;;;;;;;25.35;51.21;100497.39;92938;1210;73760;-57
2021/07/24 09:36:56;;;;;;;13.80;10.40;;;;;;;25.39;50.95;100494.86;92940;1210;80291;-57
2021/07/24 09:39:12;;;;;;;14.40;11.50;;;;;;;25.38;51.06;100487.70;92920;1211;65487;-57
2021/07/24 09:41:25;;;;;;;16.00;10.80;;;;;;;25.41;51.25;100485.17;92971;1209;68702;-58
2021/07/24 09:43:36;;;;;;;21.20;12.10;;;;;;;25.34;50.89;100490.20;92917;1210;85941;-58
2021/07/24 09:45:44;;;;;;;15.10;10.80;;;;;;;25.36;51.52;100490.73;92915;1210;73680;-58
2021/07/24 09:47:52;;;;;;;19.40;11.10;;;;;;;25.41;52.43;100487.13;92958;1205;81313;-58
2021/07/24 09:50:15;;;;;;;17.70;11.40;;;;;;;25.35;51.70;100491.86;92800;1210;66732;-58
2021/07/24 09:52:23;;;;;;;14.60;10.50;;;;;;;25.33;51.27;100494.06;92974;1211;68374;-58
2021/07/24 09:54:31;;;;;;;14.80;9.90;;;;;;;25.32;51.35;100488.83;92943;1206;86312;-58
2021/07/24 09:56:44;;;;;;;14.20;10.30;;;;;;;25.36;51.22;100496.27;92932;1210;73890;-57
2021/07/24 09:59:14;;;;;;;12.00;9.90;;;;;;;25.35;51.97;100491.86;92960;1200;81530;-58
2021/07/24 10:01:23;;;;;;;15.20;10.30;;;;;;;25.30;51.82;100488.30;92933;1200;67249;-66
2021/07/24 10:03:35;;;;;;;14.90;10.40;;;;;;;25.23;51.99;100486.66;92945;1212;68284;-65
2021/07/24 10:05:44;;;;;;;12.80;10.00;;;;;;;25.21;52.39;100488.89;92918;1211;86861;-58
2021/07/24 10:07:53;;;;;;;11.90;9.70;;;;;;;25.09;52.09;100487.55;92901;1216;74623;-58
2021/07/24 10:10:02;;;;;;;16.40;10.50;;;;;;;25.06;52.14;100479.81;92917;1210;82502;-65
2021/07/24 10:12:13;;;;;;;15.80;9.60;;;;;;;25.09;52.59;100477.31;92906;1211;66407;-65
2021/07/24 10:14:24;;;;;;;16.10;10.60;;;;;;;25.07;52.61;100476.78;92931;1211;69257;-65
2021/07/24 10:16:35;;;;;;;17.80;11.30;;;;;;;25.11;52.41;100483.38;92919;1210;86442;-57
2021/07/24 10:18:43;;;;;;;15.80;10.70;;;;;;;25.19;53.41;100476.42;92927;1211;74439;-58
2021/07/24 10:20:52;;;;;;;14.10;10.30;;;;;;;25.18;52.91;100483.92;92904;1207;81218;-57
2021/07/24 10:23:00;;;;;;;13.90;10.60;;;;;;;25.23;52.87;100483.89;92862;1215;67370;-57
2021/07/24 10:25:10;;;;;;;13.30;10.70;;;;;;;25.28;52.92;100480.27;92930;1210;68403;-65
2021/07/24 10:27:26;;;;;;;13.80;9.60;;;;;;;25.33;53.86;100487.70;92921;1216;85402;-65
2021/07/24 10:29:39;;;;;;;15.00;10.40;;;;;;;25.38;53.91;100482.17;92957;1210;74426;-58